sensor_id;sensor_type;location;lat;lon;timestamp;P1;durP1;ratioP1;P2;durP2;ratioP2
78143;SDS011;67394;52.522;13.622;2023-04-15T00:01:23;47.30;;;22.58;;
78143;SDS011;67394;52.522;13.622;2023-04-15T00:03:53;46.85;;;22.30;;
78143;SDS011;67394;52.522;13.622;2023-04-15T00:06:20;44.65;;;21.15;;
78143;SDS011;67394;52.522;13.622;2023-04-15T00:08:47;47.20;;;21.05;;
78143;SDS011;67394;52.522;13.622;2023-04-15T00:11:14;45.38;;;24.00;;
78143;SDS011;67394;52.522;13.622;2023-04-15T00:13:41;53.00;;;24.25;;
78143;SDS011;67394;52.522;13.622;2023-04-15T00:16:08;51.22;;;22.70;;
78143;SDS011;67394;52.522;13.622;2023-04-15T00:18:36;50.38;;;23.55;;
78143;SDS011;67394;52.522;13.622;2023-04-15T00:21:05;45.45;;;21.42;;
78143;SDS011;67394;52.522;13.622;2023-04-15T00:23:31;48.63;;;22.33;;
78143;SDS011;67394;52.522;13.622;2023-04-15T00:25:57;51.08;;;24.45;;
78143;SDS011;67394;52.522;13.622;2023-04-15T00:28:24;47.55;;;22.27;;
78143;SDS011;67394;52.522;13.622;2023-04-15T00:30:50;44.00;;;22.48;;
78143;SDS011;67394;52.522;13.622;2023-04-15T00:33:17;49.35;;;23.27;;
78143;SDS011;67394;52.522;13.622;2023-04-15T00:35:43;50.33;;;23.15;;
78143;SDS011;67394;52.522;13.622;2023-04-15T00:38:09;48.17;;;22.75;;
78143;SDS011;67394;52.522;13.622;2023-04-15T00:40:39;47.70;;;22.30;;
78143;SDS011;67394;52.522;13.622;2023-04-15T00:43:06;47.17;;;22.10;;
78143;SDS011;67394;52.522;13.622;2023-04-15T00:45:32;56.90;;;24.55;;
78143;SDS011;67394;52.522;13.622;2023-04-15T00:47:59;53.78;;;23.60;;
78143;SDS011;67394;52.522;13.622;2023-04-15T00:50:25;54.35;;;24.02;;
78143;SDS011;67394;52.522;13.622;2023-04-15T00:52:51;57.85;;;24.90;;
78143;SDS011;67394;52.522;13.622;2023-04-15T00:55:18;53.10;;;23.52;;
78143;SDS011;67394;52.522;13.622;2023-04-15T00:57:44;55.28;;;23.88;;
78143;SDS011;67394;52.522;13.622;2023-04-15T01:00:11;51.17;;;24.48;;
78143;SDS011;67394;52.522;13.622;2023-04-15T01:02:38;50.92;;;24.27;;
78143;SDS011;67394;52.522;13.622;2023-04-15T01:05:04;54.97;;;26.67;;
78143;SDS011;67394;52.522;13.622;2023-04-15T01:07:31;59.28;;;23.92;;
78143;SDS011;67394;52.522;13.622;2023-04-15T01:09:57;58.53;;;26.27;;
78143;SDS011;67394;52.522;13.622;2023-04-15T01:12:25;58.95;;;25.27;;
78143;SDS011;67394;52.522;13.622;2023-04-15T01:14:53;54.33;;;22.73;;
78143;SDS011;67394;52.522;13.622;2023-04-15T01:17:20;55.33;;;24.45;;
78143;SDS011;67394;52.522;13.622;2023-04-15T01:19:46;51.13;;;23.90;;
78143;SDS011;67394;52.522;13.622;2023-04-15T01:22:12;59.97;;;24.73;;
78143;SDS011;67394;52.522;13.622;2023-04-15T01:24:39;53.53;;;23.15;;
78143;SDS011;67394;52.522;13.622;2023-04-15T01:27:06;58.65;;;26.52;;
78143;SDS011;67394;52.522;13.622;2023-04-15T01:29:34;60.63;;;26.20;;
78143;SDS011;67394;52.522;13.622;2023-04-15T01:32:02;57.65;;;24.75;;
78143;SDS011;67394;52.522;13.622;2023-04-15T01:34:29;53.88;;;23.80;;
78143;SDS011;67394;52.522;13.622;2023-04-15T01:36:55;58.22;;;24.08;;
78143;SDS011;67394;52.522;13.622;2023-04-15T01:39:24;49.45;;;24.35;;
78143;SDS011;67394;52.522;13.622;2023-04-15T01:41:50;55.85;;;24.55;;
78143;SDS011;67394;52.522;13.622;2023-04-15T01:44:16;53.10;;;23.88;;
78143;SDS011;67394;52.522;13.622;2023-04-15T01:46:43;52.35;;;22.85;;
78143;SDS011;67394;52.522;13.622;2023-04-15T01:49:09;57.92;;;24.67;;
78143;SDS011;67394;52.522;13.622;2023-04-15T01:51:36;55.53;;;24.63;;
78143;SDS011;67394;52.522;13.622;2023-04-15T01:54:02;53.47;;;22.35;;
78143;SDS011;67394;52.522;13.622;2023-04-15T01:56:28;53.22;;;25.67;;
78143;SDS011;67394;52.522;13.622;2023-04-15T01:58:55;51.33;;;22.65;;
78143;SDS011;67394;52.522;13.622;2023-04-15T02:01:21;52.05;;;24.25;;
78143;SDS011;67394;52.522;13.622;2023-04-15T02:03:47;49.05;;;23.48;;
78143;SDS011;67394;52.522;13.622;2023-04-15T02:06:14;55.58;;;25.35;;
78143;SDS011;67394;52.522;13.622;2023-04-15T02:08:44;52.83;;;23.83;;
78143;SDS011;67394;52.522;13.622;2023-04-15T02:11:10;53.78;;;24.15;;
78143;SDS011;67394;52.522;13.622;2023-04-15T02:13:36;49.63;;;22.88;;
78143;SDS011;67394;52.522;13.622;2023-04-15T02:16:03;57.42;;;24.73;;
78143;SDS011;67394;52.522;13.622;2023-04-15T02:18:29;54.58;;;22.88;;
78143;SDS011;67394;52.522;13.622;2023-04-15T02:20:56;47.65;;;23.80;;
78143;SDS011;67394;52.522;13.622;2023-04-15T02:23:22;53.22;;;22.58;;
78143;SDS011;67394;52.522;13.622;2023-04-15T02:25:48;49.85;;;22.77;;
78143;SDS011;67394;52.522;13.622;2023-04-15T02:28:19;53.45;;;23.40;;
78143;SDS011;67394;52.522;13.622;2023-04-15T02:33:13;55.20;;;22.20;;
78143;SDS011;67394;52.522;13.622;2023-04-15T02:35:40;52.10;;;22.13;;
78143;SDS011;67394;52.522;13.622;2023-04-15T02:38:06;57.80;;;24.38;;
78143;SDS011;67394;52.522;13.622;2023-04-15T02:40:32;53.95;;;23.90;;
78143;SDS011;67394;52.522;13.622;2023-04-15T02:42:59;54.58;;;23.27;;
78143;SDS011;67394;52.522;13.622;2023-04-15T02:45:25;46.38;;;22.90;;
78143;SDS011;67394;52.522;13.622;2023-04-15T02:47:51;51.13;;;22.50;;
78143;SDS011;67394;52.522;13.622;2023-04-15T02:50:18;47.72;;;23.35;;
78143;SDS011;67394;52.522;13.622;2023-04-15T02:52:44;51.13;;;24.50;;
78143;SDS011;67394;52.522;13.622;2023-04-15T02:55:11;53.80;;;22.88;;
78143;SDS011;67394;52.522;13.622;2023-04-15T02:57:37;53.55;;;23.85;;
78143;SDS011;67394;52.522;13.622;2023-04-15T03:00:04;51.38;;;21.67;;
78143;SDS011;67394;52.522;13.622;2023-04-15T03:02:34;50.38;;;21.80;;
78143;SDS011;67394;52.522;13.622;2023-04-15T03:05:01;60.35;;;24.33;;
78143;SDS011;67394;52.522;13.622;2023-04-15T03:07:28;53.45;;;24.05;;
78143;SDS011;67394;52.522;13.622;2023-04-15T03:09:55;50.15;;;23.13;;
78143;SDS011;67394;52.522;13.622;2023-04-15T03:12:24;51.20;;;23.75;;
78143;SDS011;67394;52.522;13.622;2023-04-15T03:14:50;52.65;;;22.88;;
78143;SDS011;67394;52.522;13.622;2023-04-15T03:17:17;50.05;;;22.95;;
78143;SDS011;67394;52.522;13.622;2023-04-15T03:19:43;52.30;;;23.60;;
78143;SDS011;67394;52.522;13.622;2023-04-15T03:22:09;50.53;;;23.27;;
78143;SDS011;67394;52.522;13.622;2023-04-15T03:24:36;49.50;;;22.42;;
78143;SDS011;67394;52.522;13.622;2023-04-15T03:27:02;52.25;;;23.20;;
78143;SDS011;67394;52.522;13.622;2023-04-15T03:29:28;45.20;;;21.08;;
78143;SDS011;67394;52.522;13.622;2023-04-15T03:31:55;47.10;;;22.50;;
78143;SDS011;67394;52.522;13.622;2023-04-15T03:34:24;51.90;;;23.90;;
78143;SDS011;67394;52.522;13.622;2023-04-15T03:36:50;48.00;;;21.77;;
78143;SDS011;67394;52.522;13.622;2023-04-15T03:39:20;43.67;;;21.92;;
78143;SDS011;67394;52.522;13.622;2023-04-15T03:41:46;50.00;;;22.92;;
78143;SDS011;67394;52.522;13.622;2023-04-15T03:44:12;51.10;;;23.15;;
78143;SDS011;67394;52.522;13.622;2023-04-15T03:46:39;45.53;;;21.92;;
78143;SDS011;67394;52.522;13.622;2023-04-15T03:49:05;43.97;;;20.92;;
78143;SDS011;67394;52.522;13.622;2023-04-15T03:51:32;44.53;;;22.05;;
78143;SDS011;67394;52.522;13.622;2023-04-15T03:53:58;45.72;;;20.88;;
78143;SDS011;67394;52.522;13.622;2023-04-15T03:56:25;43.80;;;21.20;;
78143;SDS011;67394;52.522;13.622;2023-04-15T03:58:51;41.97;;;20.45;;
78143;SDS011;67394;52.522;13.622;2023-04-15T04:01:18;40.83;;;21.42;;
78143;SDS011;67394;52.522;13.622;2023-04-15T04:03:44;45.72;;;21.27;;
78143;SDS011;67394;52.522;13.622;2023-04-15T04:06:11;38.15;;;20.88;;
78143;SDS011;67394;52.522;13.622;2023-04-15T04:08:37;43.38;;;21.30;;
78143;SDS011;67394;52.522;13.622;2023-04-15T04:11:03;47.13;;;21.17;;
78143;SDS011;67394;52.522;13.622;2023-04-15T04:13:30;42.67;;;21.23;;
78143;SDS011;67394;52.522;13.622;2023-04-15T04:15:56;39.28;;;18.77;;
78143;SDS011;67394;52.522;13.622;2023-04-15T04:18:23;39.05;;;21.25;;
78143;SDS011;67394;52.522;13.622;2023-04-15T04:20:49;38.00;;;19.52;;
78143;SDS011;67394;52.522;13.622;2023-04-15T04:23:15;41.58;;;20.55;;
78143;SDS011;67394;52.522;13.622;2023-04-15T04:25:42;33.22;;;18.23;;
78143;SDS011;67394;52.522;13.622;2023-04-15T04:28:08;40.25;;;18.95;;
78143;SDS011;67394;52.522;13.622;2023-04-15T04:30:34;31.63;;;16.95;;
78143;SDS011;67394;52.522;13.622;2023-04-15T04:33:01;35.30;;;17.50;;
78143;SDS011;67394;52.522;13.622;2023-04-15T04:35:27;35.10;;;18.83;;
78143;SDS011;67394;52.522;13.622;2023-04-15T04:37:54;35.80;;;17.58;;
78143;SDS011;67394;52.522;13.622;2023-04-15T04:40:20;30.40;;;18.05;;
78143;SDS011;67394;52.522;13.622;2023-04-15T04:42:46;31.42;;;17.48;;
78143;SDS011;67394;52.522;13.622;2023-04-15T04:45:13;33.03;;;17.58;;
78143;SDS011;67394;52.522;13.622;2023-04-15T04:47:39;30.50;;;18.02;;
78143;SDS011;67394;52.522;13.622;2023-04-15T04:50:05;29.85;;;16.65;;
78143;SDS011;67394;52.522;13.622;2023-04-15T04:52:32;31.50;;;16.92;;
78143;SDS011;67394;52.522;13.622;2023-04-15T04:54:59;27.88;;;16.77;;
78143;SDS011;67394;52.522;13.622;2023-04-15T04:57:25;31.20;;;17.40;;
78143;SDS011;67394;52.522;13.622;2023-04-15T04:59:51;34.13;;;16.95;;
78143;SDS011;67394;52.522;13.622;2023-04-15T05:02:18;27.60;;;16.85;;
78143;SDS011;67394;52.522;13.622;2023-04-15T05:04:44;32.30;;;17.40;;
78143;SDS011;67394;52.522;13.622;2023-04-15T05:07:10;29.67;;;17.13;;
78143;SDS011;67394;52.522;13.622;2023-04-15T05:09:37;27.30;;;15.60;;
78143;SDS011;67394;52.522;13.622;2023-04-15T05:12:03;29.00;;;16.88;;
78143;SDS011;67394;52.522;13.622;2023-04-15T05:14:30;28.75;;;16.45;;
78143;SDS011;67394;52.522;13.622;2023-04-15T05:16:56;27.55;;;15.60;;
78143;SDS011;67394;52.522;13.622;2023-04-15T05:19:22;24.58;;;15.18;;
78143;SDS011;67394;52.522;13.622;2023-04-15T05:21:49;26.73;;;15.80;;
78143;SDS011;67394;52.522;13.622;2023-04-15T05:24:15;28.08;;;14.52;;
78143;SDS011;67394;52.522;13.622;2023-04-15T05:26:41;29.27;;;16.20;;
78143;SDS011;67394;52.522;13.622;2023-04-15T05:29:08;24.02;;;14.98;;
78143;SDS011;67394;52.522;13.622;2023-04-15T05:31:34;27.55;;;15.32;;
78143;SDS011;67394;52.522;13.622;2023-04-15T05:36:28;21.40;;;13.20;;
78143;SDS011;67394;52.522;13.622;2023-04-15T05:38:54;22.50;;;15.40;;
78143;SDS011;67394;52.522;13.622;2023-04-15T05:41:20;26.20;;;14.23;;
78143;SDS011;67394;52.522;13.622;2023-04-15T05:43:47;24.30;;;14.43;;
78143;SDS011;67394;52.522;13.622;2023-04-15T05:46:13;20.85;;;13.77;;
78143;SDS011;67394;52.522;13.622;2023-04-15T05:48:39;21.50;;;15.02;;
78143;SDS011;67394;52.522;13.622;2023-04-15T05:51:06;20.63;;;13.55;;
78143;SDS011;67394;52.522;13.622;2023-04-15T05:53:32;22.92;;;14.43;;
78143;SDS011;67394;52.522;13.622;2023-04-15T05:55:58;22.48;;;13.32;;
78143;SDS011;67394;52.522;13.622;2023-04-15T05:58:25;19.42;;;12.98;;
78143;SDS011;67394;52.522;13.622;2023-04-15T06:00:51;21.17;;;13.40;;
78143;SDS011;67394;52.522;13.622;2023-04-15T06:03:18;20.90;;;13.32;;
78143;SDS011;67394;52.522;13.622;2023-04-15T06:05:44;19.98;;;12.70;;
78143;SDS011;67394;52.522;13.622;2023-04-15T06:08:11;20.77;;;12.75;;
78143;SDS011;67394;52.522;13.622;2023-04-15T06:10:37;18.02;;;13.25;;
78143;SDS011;67394;52.522;13.622;2023-04-15T06:13:03;19.35;;;11.80;;
78143;SDS011;67394;52.522;13.622;2023-04-15T06:15:30;20.30;;;12.57;;
78143;SDS011;67394;52.522;13.622;2023-04-15T06:17:56;19.50;;;11.50;;
78143;SDS011;67394;52.522;13.622;2023-04-15T06:20:22;18.00;;;11.65;;
78143;SDS011;67394;52.522;13.622;2023-04-15T06:22:49;19.48;;;11.40;;
78143;SDS011;67394;52.522;13.622;2023-04-15T06:25:15;22.85;;;13.68;;
78143;SDS011;67394;52.522;13.622;2023-04-15T06:27:42;16.80;;;12.07;;
78143;SDS011;67394;52.522;13.622;2023-04-15T06:30:08;17.70;;;11.90;;
78143;SDS011;67394;52.522;13.622;2023-04-15T06:32:35;16.35;;;11.50;;
78143;SDS011;67394;52.522;13.622;2023-04-15T06:35:01;17.13;;;12.18;;
78143;SDS011;67394;52.522;13.622;2023-04-15T06:37:28;19.70;;;12.27;;
78143;SDS011;67394;52.522;13.622;2023-04-15T06:39:54;16.55;;;11.32;;
78143;SDS011;67394;52.522;13.622;2023-04-15T06:42:24;18.35;;;11.73;;
78143;SDS011;67394;52.522;13.622;2023-04-15T06:44:53;19.30;;;12.05;;
78143;SDS011;67394;52.522;13.622;2023-04-15T06:47:19;16.02;;;11.85;;
78143;SDS011;67394;52.522;13.622;2023-04-15T06:49:46;18.70;;;11.77;;
78143;SDS011;67394;52.522;13.622;2023-04-15T06:52:12;16.48;;;11.48;;
78143;SDS011;67394;52.522;13.622;2023-04-15T06:54:38;15.10;;;10.35;;
78143;SDS011;67394;52.522;13.622;2023-04-15T06:57:05;16.45;;;11.13;;
78143;SDS011;67394;52.522;13.622;2023-04-15T06:59:31;16.58;;;11.23;;
78143;SDS011;67394;52.522;13.622;2023-04-15T07:01:57;18.70;;;10.73;;
78143;SDS011;67394;52.522;13.622;2023-04-15T07:04:24;17.55;;;11.93;;
78143;SDS011;67394;52.522;13.622;2023-04-15T07:06:50;16.45;;;10.75;;
78143;SDS011;67394;52.522;13.622;2023-04-15T07:09:17;18.00;;;11.60;;
78143;SDS011;67394;52.522;13.622;2023-04-15T07:11:43;15.55;;;11.73;;
78143;SDS011;67394;52.522;13.622;2023-04-15T07:14:09;17.60;;;11.93;;
78143;SDS011;67394;52.522;13.622;2023-04-15T07:16:35;18.35;;;11.20;;
78143;SDS011;67394;52.522;13.622;2023-04-15T07:19:02;15.95;;;11.63;;
78143;SDS011;67394;52.522;13.622;2023-04-15T07:21:29;15.57;;;10.98;;
78143;SDS011;67394;52.522;13.622;2023-04-15T07:23:55;14.20;;;11.07;;
78143;SDS011;67394;52.522;13.622;2023-04-15T07:26:21;15.82;;;12.43;;
78143;SDS011;67394;52.522;13.622;2023-04-15T07:28:48;16.80;;;11.32;;
78143;SDS011;67394;52.522;13.622;2023-04-15T07:31:14;14.35;;;10.27;;
78143;SDS011;67394;52.522;13.622;2023-04-15T07:33:41;18.25;;;11.73;;
78143;SDS011;67394;52.522;13.622;2023-04-15T07:36:08;14.05;;;11.07;;
78143;SDS011;67394;52.522;13.622;2023-04-15T07:38:35;15.65;;;11.00;;
78143;SDS011;67394;52.522;13.622;2023-04-15T07:41:01;18.42;;;12.00;;
78143;SDS011;67394;52.522;13.622;2023-04-15T07:43:28;16.77;;;11.48;;
78143;SDS011;67394;52.522;13.622;2023-04-15T07:45:54;17.75;;;11.88;;
78143;SDS011;67394;52.522;13.622;2023-04-15T07:48:20;17.85;;;12.07;;
78143;SDS011;67394;52.522;13.622;2023-04-15T07:50:47;16.80;;;11.90;;
78143;SDS011;67394;52.522;13.622;2023-04-15T07:53:13;15.93;;;11.70;;
78143;SDS011;67394;52.522;13.622;2023-04-15T07:55:40;17.30;;;12.10;;
78143;SDS011;67394;52.522;13.622;2023-04-15T07:58:06;17.15;;;12.18;;
78143;SDS011;67394;52.522;13.622;2023-04-15T08:00:32;18.55;;;13.05;;
78143;SDS011;67394;52.522;13.622;2023-04-15T08:02:58;18.70;;;12.55;;
78143;SDS011;67394;52.522;13.622;2023-04-15T08:05:25;16.67;;;12.20;;
78143;SDS011;67394;52.522;13.622;2023-04-15T08:07:51;16.38;;;11.57;;
78143;SDS011;67394;52.522;13.622;2023-04-15T08:10:18;17.73;;;13.32;;
78143;SDS011;67394;52.522;13.622;2023-04-15T08:12:44;17.83;;;12.18;;
78143;SDS011;67394;52.522;13.622;2023-04-15T08:15:10;20.85;;;13.18;;
78143;SDS011;67394;52.522;13.622;2023-04-15T08:17:37;19.05;;;12.88;;
78143;SDS011;67394;52.522;13.622;2023-04-15T08:20:03;17.20;;;12.43;;
78143;SDS011;67394;52.522;13.622;2023-04-15T08:22:30;15.68;;;11.32;;
78143;SDS011;67394;52.522;13.622;2023-04-15T08:24:56;18.92;;;13.35;;
78143;SDS011;67394;52.522;13.622;2023-04-15T08:27:23;16.45;;;12.02;;
78143;SDS011;67394;52.522;13.622;2023-04-15T08:29:50;19.02;;;13.65;;
78143;SDS011;67394;52.522;13.622;2023-04-15T08:32:16;21.33;;;13.82;;
78143;SDS011;67394;52.522;13.622;2023-04-15T08:34:43;19.05;;;13.98;;
78143;SDS011;67394;52.522;13.622;2023-04-15T08:37:12;19.17;;;13.20;;
78143;SDS011;67394;52.522;13.622;2023-04-15T08:39:39;18.90;;;14.00;;
78143;SDS011;67394;52.522;13.622;2023-04-15T08:42:07;18.40;;;14.00;;
78143;SDS011;67394;52.522;13.622;2023-04-15T08:44:37;18.70;;;13.57;;
78143;SDS011;67394;52.522;13.622;2023-04-15T08:47:06;21.00;;;14.80;;
78143;SDS011;67394;52.522;13.622;2023-04-15T08:49:38;20.23;;;14.02;;
78143;SDS011;67394;52.522;13.622;2023-04-15T08:52:05;20.80;;;13.52;;
78143;SDS011;67394;52.522;13.622;2023-04-15T08:54:32;19.35;;;14.52;;
78143;SDS011;67394;52.522;13.622;2023-04-15T08:56:59;19.30;;;13.88;;
78143;SDS011;67394;52.522;13.622;2023-04-15T08:59:25;19.33;;;14.07;;
78143;SDS011;67394;52.522;13.622;2023-04-15T09:01:52;16.35;;;12.00;;
78143;SDS011;67394;52.522;13.622;2023-04-15T09:04:19;17.48;;;12.50;;
78143;SDS011;67394;52.522;13.622;2023-04-15T09:06:45;22.25;;;14.45;;
78143;SDS011;67394;52.522;13.622;2023-04-15T09:09:12;16.25;;;12.52;;
78143;SDS011;67394;52.522;13.622;2023-04-15T09:11:38;18.33;;;13.52;;
78143;SDS011;67394;52.522;13.622;2023-04-15T09:14:05;17.88;;;13.70;;
78143;SDS011;67394;52.522;13.622;2023-04-15T09:16:31;15.80;;;12.77;;
78143;SDS011;67394;52.522;13.622;2023-04-15T09:19:22;16.15;;;11.93;;
78143;SDS011;67394;52.522;13.622;2023-04-15T09:21:50;17.85;;;12.32;;
78143;SDS011;67394;52.522;13.622;2023-04-15T09:24:24;19.30;;;13.48;;
78143;SDS011;67394;52.522;13.622;2023-04-15T09:26:52;16.67;;;11.73;;
78143;SDS011;67394;52.522;13.622;2023-04-15T09:29:19;16.92;;;12.15;;
78143;SDS011;67394;52.522;13.622;2023-04-15T09:31:45;16.67;;;12.70;;
78143;SDS011;67394;52.522;13.622;2023-04-15T09:34:11;15.90;;;11.57;;
78143;SDS011;67394;52.522;13.622;2023-04-15T09:36:56;15.98;;;12.32;;
78143;SDS011;67394;52.522;13.622;2023-04-15T09:39:22;18.35;;;12.48;;
78143;SDS011;67394;52.522;13.622;2023-04-15T09:42:06;18.75;;;13.50;;
78143;SDS011;67394;52.522;13.622;2023-04-15T09:44:33;16.38;;;12.30;;
78143;SDS011;67394;52.522;13.622;2023-04-15T09:46:59;16.85;;;11.63;;
78143;SDS011;67394;52.522;13.622;2023-04-15T09:49:26;18.17;;;12.63;;
78143;SDS011;67394;52.522;13.622;2023-04-15T09:51:56;18.63;;;13.40;;
78143;SDS011;67394;52.522;13.622;2023-04-15T09:54:32;19.15;;;12.40;;
78143;SDS011;67394;52.522;13.622;2023-04-15T09:57:03;16.20;;;11.93;;
78143;SDS011;67394;52.522;13.622;2023-04-15T09:59:34;16.85;;;12.93;;
78143;SDS011;67394;52.522;13.622;2023-04-15T10:02:02;15.88;;;12.35;;
78143;SDS011;67394;52.522;13.622;2023-04-15T10:04:29;17.33;;;12.48;;
78143;SDS011;67394;52.522;13.622;2023-04-15T10:07:00;17.02;;;12.95;;
78143;SDS011;67394;52.522;13.622;2023-04-15T10:09:29;19.55;;;13.43;;
78143;SDS011;67394;52.522;13.622;2023-04-15T10:14:22;16.92;;;12.48;;
78143;SDS011;67394;52.522;13.622;2023-04-15T10:16:50;16.80;;;12.65;;
78143;SDS011;67394;52.522;13.622;2023-04-15T10:19:21;21.55;;;14.40;;
78143;SDS011;67394;52.522;13.622;2023-04-15T10:21:52;16.38;;;12.00;;
78143;SDS011;67394;52.522;13.622;2023-04-15T10:24:20;18.50;;;12.77;;
78143;SDS011;67394;52.522;13.622;2023-04-15T10:26:47;15.73;;;11.82;;
78143;SDS011;67394;52.522;13.622;2023-04-15T10:29:16;16.02;;;12.07;;
78143;SDS011;67394;52.522;13.622;2023-04-15T10:34:12;14.98;;;11.68;;
78143;SDS011;67394;52.522;13.622;2023-04-15T10:36:38;16.90;;;11.43;;
78143;SDS011;67394;52.522;13.622;2023-04-15T10:39:37;17.65;;;12.95;;
78143;SDS011;67394;52.522;13.622;2023-04-15T10:42:11;15.30;;;11.32;;
78143;SDS011;67394;52.522;13.622;2023-04-15T10:44:51;14.68;;;12.10;;
78143;SDS011;67394;52.522;13.622;2023-04-15T10:47:21;19.38;;;12.43;;
78143;SDS011;67394;52.522;13.622;2023-04-15T10:49:52;18.35;;;12.30;;
78143;SDS011;67394;52.522;13.622;2023-04-15T10:52:23;17.98;;;12.48;;
78143;SDS011;67394;52.522;13.622;2023-04-15T10:55:01;16.55;;;12.55;;
78143;SDS011;67394;52.522;13.622;2023-04-15T10:57:39;16.48;;;11.73;;
78143;SDS011;67394;52.522;13.622;2023-04-15T11:00:16;15.38;;;11.63;;
78143;SDS011;67394;52.522;13.622;2023-04-15T11:05:19;15.80;;;11.93;;
78143;SDS011;67394;52.522;13.622;2023-04-15T11:07:54;15.30;;;11.15;;
78143;SDS011;67394;52.522;13.622;2023-04-15T11:11:08;15.32;;;10.82;;
78143;SDS011;67394;52.522;13.622;2023-04-15T11:15:44;13.73;;;10.70;;
78143;SDS011;67394;52.522;13.622;2023-04-15T11:18:13;14.10;;;10.75;;
78143;SDS011;67394;52.522;13.622;2023-04-15T11:20:43;14.27;;;10.38;;
78143;SDS011;67394;52.522;13.622;2023-04-15T11:23:10;13.73;;;10.18;;
78143;SDS011;67394;52.522;13.622;2023-04-15T11:25:40;13.35;;;10.43;;
78143;SDS011;67394;52.522;13.622;2023-04-15T11:28:07;16.75;;;11.15;;
78143;SDS011;67394;52.522;13.622;2023-04-15T11:30:34;14.45;;;10.45;;
78143;SDS011;67394;52.522;13.622;2023-04-15T11:33:05;14.02;;;10.10;;
78143;SDS011;67394;52.522;13.622;2023-04-15T11:35:33;13.50;;;10.30;;
78143;SDS011;67394;52.522;13.622;2023-04-15T11:38:03;13.45;;;10.25;;
78143;SDS011;67394;52.522;13.622;2023-04-15T11:40:31;13.50;;;10.02;;
78143;SDS011;67394;52.522;13.622;2023-04-15T11:43:07;13.95;;;10.52;;
78143;SDS011;67394;52.522;13.622;2023-04-15T11:45:53;15.65;;;10.38;;
78143;SDS011;67394;52.522;13.622;2023-04-15T11:48:21;15.05;;;11.25;;
78143;SDS011;67394;52.522;13.622;2023-04-15T11:50:53;15.02;;;11.15;;
78143;SDS011;67394;52.522;13.622;2023-04-15T11:53:21;14.60;;;10.90;;
78143;SDS011;67394;52.522;13.622;2023-04-15T11:55:49;14.80;;;11.05;;
78143;SDS011;67394;52.522;13.622;2023-04-15T11:58:17;16.13;;;11.30;;
78143;SDS011;67394;52.522;13.622;2023-04-15T12:00:53;15.73;;;10.55;;
78143;SDS011;67394;52.522;13.622;2023-04-15T12:03:25;14.93;;;10.57;;
78143;SDS011;67394;52.522;13.622;2023-04-15T12:06:02;15.25;;;10.98;;
78143;SDS011;67394;52.522;13.622;2023-04-15T12:11:26;15.25;;;10.43;;
78143;SDS011;67394;52.522;13.622;2023-04-15T12:13:58;13.73;;;10.18;;
78143;SDS011;67394;52.522;13.622;2023-04-15T12:16:30;14.50;;;10.73;;
78143;SDS011;67394;52.522;13.622;2023-04-15T12:21:25;15.10;;;10.95;;
78143;SDS011;67394;52.522;13.622;2023-04-15T12:23:53;14.70;;;10.02;;
78143;SDS011;67394;52.522;13.622;2023-04-15T12:26:29;14.07;;;9.77;;
78143;SDS011;67394;52.522;13.622;2023-04-15T12:29:02;13.50;;;10.45;;
78143;SDS011;67394;52.522;13.622;2023-04-15T12:31:29;19.38;;;11.30;;
78143;SDS011;67394;52.522;13.622;2023-04-15T12:33:56;12.90;;;9.85;;
78143;SDS011;67394;52.522;13.622;2023-04-15T12:36:30;12.25;;;9.73;;
78143;SDS011;67394;52.522;13.622;2023-04-15T12:38:56;13.82;;;9.80;;
78143;SDS011;67394;52.522;13.622;2023-04-15T12:41:22;15.77;;;10.60;;
78143;SDS011;67394;52.522;13.622;2023-04-15T12:43:49;12.00;;;9.57;;
78143;SDS011;67394;52.522;13.622;2023-04-15T12:46:15;10.63;;;8.85;;
78143;SDS011;67394;52.522;13.622;2023-04-15T12:48:42;11.70;;;8.48;;
78143;SDS011;67394;52.522;13.622;2023-04-15T12:51:08;11.38;;;8.52;;
78143;SDS011;67394;52.522;13.622;2023-04-15T12:53:34;10.40;;;8.23;;
78143;SDS011;67394;52.522;13.622;2023-04-15T12:56:01;10.52;;;7.38;;
78143;SDS011;67394;52.522;13.622;2023-04-15T12:58:27;13.18;;;8.38;;
78143;SDS011;67394;52.522;13.622;2023-04-15T13:00:54;9.63;;;7.50;;
78143;SDS011;67394;52.522;13.622;2023-04-15T13:03:20;8.80;;;7.03;;
78143;SDS011;67394;52.522;13.622;2023-04-15T13:05:46;10.77;;;8.40;;
78143;SDS011;67394;52.522;13.622;2023-04-15T13:08:13;9.80;;;7.65;;
78143;SDS011;67394;52.522;13.622;2023-04-15T13:10:39;10.77;;;7.80;;
78143;SDS011;67394;52.522;13.622;2023-04-15T13:13:06;10.52;;;8.10;;
78143;SDS011;67394;52.522;13.622;2023-04-15T13:15:33;8.23;;;6.32;;
78143;SDS011;67394;52.522;13.622;2023-04-15T13:18:00;10.07;;;7.22;;
78143;SDS011;67394;52.522;13.622;2023-04-15T13:20:26;9.75;;;7.05;;
78143;SDS011;67394;52.522;13.622;2023-04-15T13:22:53;7.55;;;6.75;;
78143;SDS011;67394;52.522;13.622;2023-04-15T13:25:19;7.22;;;5.90;;
78143;SDS011;67394;52.522;13.622;2023-04-15T13:27:46;7.95;;;6.18;;
78143;SDS011;67394;52.522;13.622;2023-04-15T13:30:12;7.40;;;5.78;;
78143;SDS011;67394;52.522;13.622;2023-04-15T13:32:41;7.28;;;6.53;;
78143;SDS011;67394;52.522;13.622;2023-04-15T13:35:08;8.25;;;6.90;;
78143;SDS011;67394;52.522;13.622;2023-04-15T13:37:34;9.68;;;6.65;;
78143;SDS011;67394;52.522;13.622;2023-04-15T13:40:00;10.35;;;7.57;;
78143;SDS011;67394;52.522;13.622;2023-04-15T13:42:27;8.68;;;7.13;;
78143;SDS011;67394;52.522;13.622;2023-04-15T13:44:53;8.80;;;7.28;;
78143;SDS011;67394;52.522;13.622;2023-04-15T13:47:19;9.32;;;7.63;;
78143;SDS011;67394;52.522;13.622;2023-04-15T13:49:46;8.73;;;6.95;;
78143;SDS011;67394;52.522;13.622;2023-04-15T13:52:12;9.18;;;6.85;;
78143;SDS011;67394;52.522;13.622;2023-04-15T13:54:39;8.15;;;6.78;;
78143;SDS011;67394;52.522;13.622;2023-04-15T13:57:05;9.30;;;7.43;;
78143;SDS011;67394;52.522;13.622;2023-04-15T13:59:32;10.77;;;7.95;;
78143;SDS011;67394;52.522;13.622;2023-04-15T14:01:59;10.70;;;8.13;;
78143;SDS011;67394;52.522;13.622;2023-04-15T14:04:25;8.98;;;6.82;;
78143;SDS011;67394;52.522;13.622;2023-04-15T14:06:52;9.93;;;7.32;;
78143;SDS011;67394;52.522;13.622;2023-04-15T14:09:18;9.55;;;6.78;;
78143;SDS011;67394;52.522;13.622;2023-04-15T14:11:45;9.63;;;7.28;;
78143;SDS011;67394;52.522;13.622;2023-04-15T14:14:11;8.20;;;6.30;;
78143;SDS011;67394;52.522;13.622;2023-04-15T14:16:40;10.35;;;6.97;;
78143;SDS011;67394;52.522;13.622;2023-04-15T14:19:06;11.18;;;8.10;;
78143;SDS011;67394;52.522;13.622;2023-04-15T14:21:33;9.25;;;7.53;;
78143;SDS011;67394;52.522;13.622;2023-04-15T14:23:59;8.82;;;7.15;;
78143;SDS011;67394;52.522;13.622;2023-04-15T14:26:26;9.32;;;7.28;;
78143;SDS011;67394;52.522;13.622;2023-04-15T14:28:52;10.57;;;7.50;;
78143;SDS011;67394;52.522;13.622;2023-04-15T14:31:19;9.93;;;7.53;;
78143;SDS011;67394;52.522;13.622;2023-04-15T14:33:45;10.15;;;7.32;;